Time;durP1;ratioP1;P1;durP2;ratioP2;P2;SDS_P1;SDS_P2;PMS_P1;PMS_P2;Temp;Humidity;BMP_temperature;BMP_pressure;BME280_temperature;BME280_humidity;BME280_pressure;Samples;Min_cycle;Max_cycle;Signal;HPM_P1;HPM_P2
2022/08/22 00:01:02;;;;;;;15.47;12.53;;;;;;;;;;5071474;28;20463;-34
2022/08/22 00:03:28;;;;;;;15.80;12.15;;;;;;;;;;5069545;28;20435;-37
2022/08/22 00:06:16;;;;;;;19.20;12.70;;;;;;;;;;5034376;28;20033;-35
2022/08/22 00:08:48;;;;;;;17.48;12.95;;;;;;;;;;5005273;28;20068;-34
2022/08/22 00:11:20;;;;;;;16.42;12.10;;;;;;;;;;5052530;28;20025;-35
2022/08/22 00:14:05;;;;;;;17.08;12.82;;;;;;;;;;5052110;28;20507;-34
2022/08/22 00:16:35;;;;;;;18.85;12.98;;;;;;;;;;5033940;28;20025;-34
2022/08/22 00:19:36;;;;;;;14.95;11.25;;;;;;;;;;5051778;28;20024;-34
2022/08/22 00:22:10;;;;;;;14.25;10.88;;;;;;;;;;4951587;29;20651;-34
2022/08/22 00:24:36;;;;;;;15.48;11.05;;;;;;;;;;5019297;28;20404;-35
2022/08/22 00:27:06;;;;;;;15.17;11.43;;;;;;;;;;5051964;28;20028;-35
2022/08/22 00:29:57;;;;;;;14.85;11.60;;;;;;;;;;5033899;28;20321;-34
2022/08/22 00:32:31;;;;;;;14.77;10.38;;;;;;;;;;5013192;28;20044;-34
2022/08/22 00:35:06;;;;;;;15.90;11.63;;;;;;;;;;5034460;28;20032;-34
2022/08/22 00:37:35;;;;;;;18.88;11.98;;;;;;;;;;5051890;28;20020;-35
2022/08/22 00:40:01;;;;;;;16.17;12.23;;;;;;;;;;5051819;28;20036;-36
2022/08/22 00:42:56;;;;;;;16.05;12.02;;;;;;;;;;5051674;28;20452;-35
2022/08/22 00:45:41;;;;;;;17.45;12.98;;;;;;;;;;5030139;28;20041;-34
2022/08/22 00:48:25;;;;;;;18.95;12.55;;;;;;;;;;5033499;28;20078;-34
2022/08/22 00:50:59;;;;;;;15.13;11.45;;;;;;;;;;5048731;28;20025;-34
2022/08/22 00:53:37;;;;;;;12.10;10.25;;;;;;;;;;5031390;28;20032;-35
2022/08/22 00:56:14;;;;;;;14.20;11.50;;;;;;;;;;5031751;28;20021;-35
2022/08/22 00:58:58;;;;;;;19.35;12.07;;;;;;;;;;5031610;28;20104;-34
2022/08/22 01:01:34;;;;;;;17.88;12.00;;;;;;;;;;5031839;28;20037;-35
2022/08/22 01:04:15;;;;;;;18.48;12.15;;;;;;;;;;5031143;28;20048;-34
2022/08/22 01:06:56;;;;;;;18.20;12.70;;;;;;;;;;5013912;28;20013;-35
2022/08/22 01:09:34;;;;;;;18.65;12.73;;;;;;;;;;5013453;28;20473;-34
2022/08/22 01:12:12;;;;;;;19.05;12.68;;;;;;;;;;5013922;28;20542;-34
2022/08/22 01:14:40;;;;;;;15.30;11.45;;;;;;;;;;5031057;28;20048;-34
2022/08/22 01:17:06;;;;;;;15.60;11.80;;;;;;;;;;5031729;28;20025;-34
2022/08/22 01:19:50;;;;;;;14.77;12.20;;;;;;;;;;5031198;28;20563;-34
2022/08/22 01:22:24;;;;;;;18.90;13.23;;;;;;;;;;5013802;28;20163;-34
2022/08/22 01:25:17;;;;;;;16.05;11.88;;;;;;;;;;5031471;28;20029;-34
2022/08/22 01:27:57;;;;;;;23.33;14.10;;;;;;;;;;5030553;28;20028;-34
2022/08/22 01:30:31;;;;;;;15.43;12.30;;;;;;;;;;5031854;28;20044;-34
2022/08/22 01:33:02;;;;;;;16.92;13.75;;;;;;;;;;5031059;28;20022;-34
2022/08/22 01:35:43;;;;;;;21.92;13.93;;;;;;;;;;5013473;28;20021;-36
2022/08/22 01:38:27;;;;;;;17.40;12.98;;;;;;;;;;5030915;28;20079;-34
2022/08/22 01:41:10;;;;;;;17.17;13.60;;;;;;;;;;5031330;28;20029;-34
2022/08/22 01:43:54;;;;;;;19.27;13.90;;;;;;;;;;5031168;28;20072;-34
2022/08/22 01:46:23;;;;;;;17.02;13.40;;;;;;;;;;5013561;28;20040;-35
2022/08/22 01:49:02;;;;;;;24.15;14.63;;;;;;;;;;5030542;28;20376;-34
2022/08/22 01:51:35;;;;;;;14.82;11.82;;;;;;;;;;5039443;28;20426;-34
2022/08/22 01:54:03;;;;;;;17.50;14.00;;;;;;;;;;5032857;28;20511;-33
2022/08/22 01:56:34;;;;;;;19.93;13.57;;;;;;;;;;5051294;28;20078;-34
2022/08/22 01:59:02;;;;;;;19.60;14.55;;;;;;;;;;5050683;28;20656;-34
2022/08/22 02:01:46;;;;;;;18.88;14.38;;;;;;;;;;5050658;28;20025;-34
2022/08/22 02:04:12;;;;;;;15.88;12.02;;;;;;;;;;5051096;28;20056;-34
2022/08/22 02:06:44;;;;;;;20.10;13.90;;;;;;;;;;5051177;28;20029;-34
2022/08/22 02:09:18;;;;;;;21.33;15.00;;;;;;;;;;5051196;28;20249;-34
2022/08/22 02:11:47;;;;;;;21.75;16.95;;;;;;;;;;5032942;28;20388;-34
2022/08/22 02:14:35;;;;;;;22.75;17.30;;;;;;;;;;5051071;28;20021;-34
2022/08/22 02:17:27;;;;;;;26.13;17.27;;;;;;;;;;5019543;28;20030;-33
2022/08/22 02:20:11;;;;;;;26.08;18.10;;;;;;;;;;5027823;28;20507;-34
2022/08/22 02:22:37;;;;;;;24.48;17.48;;;;;;;;;;5032764;28;20032;-34
2022/08/22 02:25:31;;;;;;;22.63;15.90;;;;;;;;;;5032887;28;20063;-34
2022/08/22 02:27:56;;;;;;;27.13;18.00;;;;;;;;;;5029561;28;20495;-34
2022/08/22 02:30:40;;;;;;;25.57;16.23;;;;;;;;;;5050959;28;20086;-34
2022/08/22 02:33:09;;;;;;;21.65;15.80;;;;;;;;;;5050797;28;20459;-34
2022/08/22 02:35:38;;;;;;;31.83;19.73;;;;;;;;;;5050902;28;20051;-34
2022/08/22 02:38:26;;;;;;;33.40;18.13;;;;;;;;;;5050989;28;20075;-34
2022/08/22 02:40:51;;;;;;;23.15;17.35;;;;;;;;;;5052788;28;20033;-34
2022/08/22 02:43:27;;;;;;;24.20;17.37;;;;;;;;;;5036071;28;20017;-34
2022/08/22 02:46:11;;;;;;;26.65;18.00;;;;;;;;;;5036041;28;20339;-34
2022/08/22 02:48:43;;;;;;;30.80;20.80;;;;;;;;;;5035713;28;20021;-35
2022/08/22 02:51:23;;;;;;;28.15;20.25;;;;;;;;;;5048140;28;20485;-34
2022/08/22 02:53:53;;;;;;;30.63;19.13;;;;;;;;;;5033864;28;20056;-34
2022/08/22 02:56:22;;;;;;;30.00;20.00;;;;;;;;;;5033937;28;20068;-34
2022/08/22 02:59:06;;;;;;;34.70;21.38;;;;;;;;;;5033725;28;20493;-34
2022/08/22 03:01:37;;;;;;;31.17;20.30;;;;;;;;;;5015960;28;20391;-34
2022/08/22 03:04:20;;;;;;;32.72;21.52;;;;;;;;;;5035681;28;20053;-33
2022/08/22 03:07:00;;;;;;;34.40;20.25;;;;;;;;;;5034127;28;20056;-35
2022/08/22 03:09:29;;;;;;;30.42;20.27;;;;;;;;;;5016076;28;20436;-37
2022/08/22 03:12:08;;;;;;;33.50;21.45;;;;;;;;;;5034128;28;20104;-34
2022/08/22 03:14:45;;;;;;;31.33;20.17;;;;;;;;;;5033346;28;20031;-34
2022/08/22 03:17:22;;;;;;;31.67;20.10;;;;;;;;;;5015893;28;20013;-34
2022/08/22 03:19:48;;;;;;;31.00;18.42;;;;;;;;;;5033419;28;20029;-34
2022/08/22 03:22:14;;;;;;;30.85;18.88;;;;;;;;;;5033545;28;20381;-34
2022/08/22 03:24:42;;;;;;;35.17;21.60;;;;;;;;;;5015485;28;20044;-34
2022/08/22 03:27:27;;;;;;;29.83;20.03;;;;;;;;;;5033388;28;20014;-35
2022/08/22 03:29:55;;;;;;;30.27;19.70;;;;;;;;;;5033436;28;20246;-34
2022/08/22 03:32:22;;;;;;;33.05;18.83;;;;;;;;;;5015722;28;20037;-34
2022/08/22 03:35:01;;;;;;;27.30;18.17;;;;;;;;;;5033144;28;20029;-34
2022/08/22 03:37:30;;;;;;;29.88;20.45;;;;;;;;;;5015554;28;20480;-34
2022/08/22 03:40:06;;;;;;;32.63;21.67;;;;;;;;;;5033647;28;20032;-34
2022/08/22 03:42:54;;;;;;;29.35;18.52;;;;;;;;;;5015679;28;20044;-35
2022/08/22 03:45:26;;;;;;;33.20;21.23;;;;;;;;;;5032740;28;20463;-34
2022/08/22 03:47:52;;;;;;;31.38;20.70;;;;;;;;;;5032728;28;20029;-35
2022/08/22 03:50:31;;;;;;;38.53;22.25;;;;;;;;;;5032558;28;20025;-34
2022/08/22 03:53:14;;;;;;;33.92;21.52;;;;;;;;;;5033335;28;20025;-34
2022/08/22 03:55:58;;;;;;;34.50;21.10;;;;;;;;;;5032789;28;20435;-34
2022/08/22 03:58:29;;;;;;;36.45;22.90;;;;;;;;;;5014518;28;20043;-37
2022/08/22 04:00:57;;;;;;;33.10;22.60;;;;;;;;;;5033205;28;20036;-34
2022/08/22 04:03:41;;;;;;;35.50;21.77;;;;;;;;;;5032527;28;20021;-34
2022/08/22 04:06:06;;;;;;;34.47;21.27;;;;;;;;;;5032270;28;20983;-34
2022/08/22 04:08:39;;;;;;;38.95;23.63;;;;;;;;;;5014808;28;20057;-34
2022/08/22 04:11:23;;;;;;;33.60;21.50;;;;;;;;;;5032683;28;20056;-35
2022/08/22 04:13:58;;;;;;;35.05;22.63;;;;;;;;;;5014774;28;20380;-34
2022/08/22 04:16:42;;;;;;;31.20;20.35;;;;;;;;;;5014776;28;20018;-34
2022/08/22 04:19:23;;;;;;;33.20;20.90;;;;;;;;;;5014455;28;20025;-34
2022/08/22 04:22:07;;;;;;;38.08;23.50;;;;;;;;;;5032153;28;20366;-36
2022/08/22 04:24:33;;;;;;;37.70;23.27;;;;;;;;;;5032548;28;20120;-34
2022/08/22 04:27:11;;;;;;;36.90;23.25;;;;;;;;;;5032459;28;20460;-34
2022/08/22 04:29:36;;;;;;;41.22;23.05;;;;;;;;;;5014626;28;20021;-34
2022/08/22 04:32:11;;;;;;;36.23;22.03;;;;;;;;;;5014225;28;20026;-34
2022/08/22 04:34:40;;;;;;;33.67;22.02;;;;;;;;;;5032094;28;20251;-35
2022/08/22 04:37:13;;;;;;;33.15;21.80;;;;;;;;;;5014405;28;20028;-36
2022/08/22 04:40:05;;;;;;;35.25;21.02;;;;;;;;;;5031752;28;20025;-34
2022/08/22 04:42:32;;;;;;;31.70;20.27;;;;;;;;;;5026863;28;20500;-34
2022/08/22 04:45:03;;;;;;;30.17;19.15;;;;;;;;;;5032459;28;20396;-34
2022/08/22 04:47:37;;;;;;;31.75;20.25;;;;;;;;;;5032093;28;20100;-34
2022/08/22 04:50:14;;;;;;;32.53;20.45;;;;;;;;;;5031779;28;20025;-34
2022/08/22 04:52:55;;;;;;;33.92;19.15;;;;;;;;;;5032540;28;20079;-34
2022/08/22 04:55:30;;;;;;;28.50;19.50;;;;;;;;;;5051941;28;20051;-34
2022/08/22 04:57:55;;;;;;;31.77;20.20;;;;;;;;;;5034148;28;20439;-35
2022/08/22 05:00:21;;;;;;;35.08;19.75;;;;;;;;;;5033953;28;20053;-34
2022/08/22 05:02:49;;;;;;;30.35;20.40;;;;;;;;;;5050851;28;20013;-35
2022/08/22 05:05:20;;;;;;;29.95;18.90;;;;;;;;;;5060465;28;20452;-34
2022/08/22 05:07:52;;;;;;;29.92;18.48;;;;;;;;;;5071827;28;20028;-35
2022/08/22 05:10:20;;;;;;;29.20;19.05;;;;;;;;;;5071844;28;20062;-34
2022/08/22 05:12:51;;;;;;;30.50;18.13;;;;;;;;;;5071868;28;20348;-34
2022/08/22 05:15:29;;;;;;;28.85;17.95;;;;;;;;;;5071446;28;20017;-33
2022/08/22 05:17:58;;;;;;;26.92;18.10;;;;;;;;;;5071016;28;20028;-35
2022/08/22 05:20:25;;;;;;;29.35;18.67;;;;;;;;;;5071638;28;20021;-34
2022/08/22 05:22:52;;;;;;;27.95;18.05;;;;;;;;;;5071746;28;20025;-34
2022/08/22 05:25:19;;;;;;;26.73;17.17;;;;;;;;;;5070946;28;20034;-34
2022/08/22 05:27:48;;;;;;;27.00;17.50;;;;;;;;;;5071164;28;20412;-36
2022/08/22 05:30:20;;;;;;;29.83;18.75;;;;;;;;;;5068707;28;20453;-35
2022/08/22 05:32:50;;;;;;;30.05;19.25;;;;;;;;;;5071263;28;20073;-35
2022/08/22 05:35:17;;;;;;;33.78;19.15;;;;;;;;;;5069717;28;20078;-35
2022/08/22 05:37:47;;;;;;;29.90;20.05;;;;;;;;;;5071508;28;20024;-34
2022/08/22 05:40:19;;;;;;;29.85;18.80;;;;;;;;;;5069735;28;20107;-34
2022/08/22 05:42:45;;;;;;;31.55;19.13;;;;;;;;;;5067129;28;20028;-34
2022/08/22 05:45:11;;;;;;;26.52;17.15;;;;;;;;;;5050319;28;20037;-36
2022/08/22 05:47:41;;;;;;;27.08;18.40;;;;;;;;;;5053083;28;20017;-34
2022/08/22 05:50:24;;;;;;;33.95;20.42;;;;;;;;;;5067558;28;20101;-34
2022/08/22 05:52:53;;;;;;;35.05;20.55;;;;;;;;;;5067061;28;20027;-37
2022/08/22 05:55:27;;;;;;;30.65;19.73;;;;;;;;;;5064783;28;20037;-34
2022/08/22 05:58:07;;;;;;;32.90;19.30;;;;;;;;;;5068386;28;20032;-34
2022/08/22 06:00:37;;;;;;;22.60;14.20;;;;;;;;;;5063213;28;20024;-35
2022/08/22 06:03:03;;;;;;;34.25;20.20;;;;;;;;;;5055697;28;20013;-34
2022/08/22 06:05:30;;;;;;;29.60;19.25;;;;;;;;;;5035806;28;20114;-34
2022/08/22 06:08:07;;;;;;;34.65;20.42;;;;;;;;;;5028433;28;20388;-34
2022/08/22 06:10:41;;;;;;;33.95;19.98;;;;;;;;;;5024804;28;20029;-36
2022/08/22 06:13:15;;;;;;;32.58;20.27;;;;;;;;;;5043248;28;20043;-36
2022/08/22 06:15:46;;;;;;;34.38;20.80;;;;;;;;;;5047975;28;20033;-36
2022/08/22 06:18:14;;;;;;;38.90;21.70;;;;;;;;;;5026282;28;20074;-34
2022/08/22 06:20:42;;;;;;;33.90;20.13;;;;;;;;;;5047745;28;20082;-34
2022/08/22 06:23:11;;;;;;;27.35;16.30;;;;;;;;;;5048193;28;20017;-35
2022/08/22 06:25:38;;;;;;;35.00;19.13;;;;;;;;;;5046617;28;20041;-35
2022/08/22 06:28:06;;;;;;;28.92;18.58;;;;;;;;;;5042698;28;20021;-36
2022/08/22 06:30:32;;;;;;;33.33;18.90;;;;;;;;;;5047861;28;20028;-34
2022/08/22 06:33:01;;;;;;;32.58;18.52;;;;;;;;;;5044776;28;20045;-37
2022/08/22 06:36:29;;;;;;;25.48;16.13;;;;;;;;;;5031950;28;20436;-44
2022/08/22 06:38:19;;;;;;;35.90;19.08;;;;;;;;;;5053063;28;20032;-45
2022/08/22 06:40:44;;;;;;;34.97;20.55;;;;;;;;;;5053351;28;20024;-45
2022/08/22 06:43:10;;;;;;;27.02;18.63;;;;;;;;;;5045998;28;20021;-45
2022/08/22 06:45:36;;;;;;;25.52;17.92;;;;;;;;;;5026663;28;20037;-45
2022/08/22 06:48:05;;;;;;;28.45;18.42;;;;;;;;;;5042769;28;20013;-46
2022/08/22 06:50:30;;;;;;;25.15;15.18;;;;;;;;;;5048128;28;20017;-45
2022/08/22 06:52:56;;;;;;;25.90;16.85;;;;;;;;;;5016511;28;20103;-44
2022/08/22 06:55:22;;;;;;;24.70;16.30;;;;;;;;;;5031768;28;20009;-46
2022/08/22 06:57:52;;;;;;;24.95;14.93;;;;;;;;;;5046484;28;20582;-46
2022/08/22 07:00:18;;;;;;;25.48;15.65;;;;;;;;;;5046561;28;20186;-45
2022/08/22 07:02:45;;;;;;;52.15;26.17;;;;;;;;;;5034336;28;20028;-45
2022/08/22 07:05:18;;;;;;;19.50;14.20;;;;;;;;;;5039292;28;20084;-44
2022/08/22 07:07:44;;;;;;;23.42;15.23;;;;;;;;;;5032631;28;20091;-46
2022/08/22 07:10:11;;;;;;;32.45;17.42;;;;;;;;;;5032537;28;20029;-46
2022/08/22 07:12:37;;;;;;;27.75;17.08;;;;;;;;;;5037549;28;20099;-44
2022/08/22 07:15:19;;;;;;;33.08;18.40;;;;;;;;;;5050328;28;20427;-45
2022/08/22 07:17:56;;;;;;;32.10;20.73;;;;;;;;;;5033395;28;20180;-45
2022/08/22 07:20:22;;;;;;;29.88;18.48;;;;;;;;;;5046711;28;20048;-46
2022/08/22 07:22:53;;;;;;;35.42;19.50;;;;;;;;;;5050057;28;20088;-44
2022/08/22 07:25:18;;;;;;;27.92;19.10;;;;;;;;;;5047902;28;20037;-46
2022/08/22 07:28:02;;;;;;;30.50;19.17;;;;;;;;;;5043277;28;20519;-47
2022/08/22 07:30:53;;;;;;;30.45;19.55;;;;;;;;;;5042544;28;20561;-45
2022/08/22 07:33:21;;;;;;;32.15;18.42;;;;;;;;;;5042951;28;20488;-41
2022/08/22 07:35:50;;;;;;;31.42;18.05;;;;;;;;;;5033254;28;20029;-41
2022/08/22 07:38:31;;;;;;;34.38;17.80;;;;;;;;;;5052289;28;20032;-43
2022/08/22 07:40:59;;;;;;;28.90;18.40;;;;;;;;;;5029670;28;20028;-45
2022/08/22 07:43:29;;;;;;;38.40;19.15;;;;;;;;;;5047596;28;20373;-44
2022/08/22 07:45:57;;;;;;;85.20;56.70;;;;;;;;;;5049676;28;20036;-45
2022/08/22 07:48:29;;;;;;;107.80;53.63;;;;;;;;;;5045386;28;20036;-44
2022/08/22 07:51:02;;;;;;;20.55;13.25;;;;;;;;;;5044236;28;20016;-43
2022/08/22 07:53:46;;;;;;;23.70;14.18;;;;;;;;;;5046276;28;20045;-45
2022/08/22 07:56:15;;;;;;;24.95;16.30;;;;;;;;;;5048706;28;20489;-44
2022/08/22 07:58:41;;;;;;;24.98;13.80;;;;;;;;;;5024049;28;20021;-43
2022/08/22 08:01:08;;;;;;;23.02;15.30;;;;;;;;;;5046943;28;20009;-44
2022/08/22 08:03:34;;;;;;;26.67;15.30;;;;;;;;;;5047474;28;20068;-46
2022/08/22 08:06:00;;;;;;;25.95;17.55;;;;;;;;;;5069459;28;20053;-44
2022/08/22 08:08:32;;;;;;;25.95;17.35;;;;;;;;;;5062247;28;20032;-45
2022/08/22 08:10:58;;;;;;;23.38;15.82;;;;;;;;;;5057725;28;20031;-43
2022/08/22 08:13:30;;;;;;;28.35;16.10;;;;;;;;;;5059232;28;20024;-44
2022/08/22 08:15:55;;;;;;;25.23;14.98;;;;;;;;;;5068620;28;20028;-43
2022/08/22 08:18:24;;;;;;;27.33;17.70;;;;;;;;;;5069181;28;20551;-45
2022/08/22 08:20:51;;;;;;;23.05;17.80;;;;;;;;;;5067027;28;20021;-45
2022/08/22 08:23:18;;;;;;;27.05;16.85;;;;;;;;;;5067025;28;20028;-45
2022/08/22 08:25:52;;;;;;;33.55;16.92;;;;;;;;;;5062663;28;20041;-44
2022/08/22 08:28:36;;;;;;;23.42;14.88;;;;;;;;;;5067346;28;20109;-41
2022/08/22 08:31:11;;;;;;;23.80;16.80;;;;;;;;;;5058919;28;20567;-42
2022/08/22 08:33:39;;;;;;;28.40;16.10;;;;;;;;;;5054978;28;20078;-43
2022/08/22 08:36:11;;;;;;;45.85;21.95;;;;;;;;;;5064860;28;20084;-45
2022/08/22 08:38:48;;;;;;;21.38;13.98;;;;;;;;;;5066973;28;20013;-47
2022/08/22 08:41:13;;;;;;;29.75;16.92;;;;;;;;;;5054542;28;20107;-45
2022/08/22 08:44:02;;;;;;;29.20;15.75;;;;;;;;;;5068323;28;20151;-46
2022/08/22 08:46:27;;;;;;;28.40;16.70;;;;;;;;;;5017058;28;20044;-45
2022/08/22 08:49:24;;;;;;;26.47;15.37;;;;;;;;;;5065275;28;20012;-44
2022/08/22 08:52:01;;;;;;;24.52;14.70;;;;;;;;;;5019638;28;20081;-44
2022/08/22 08:54:27;;;;;;;28.33;16.63;;;;;;;;;;5064052;28;20082;-45
2022/08/22 08:56:58;;;;;;;26.90;16.50;;;;;;;;;;5066387;28;20107;-43
2022/08/22 08:59:42;;;;;;;30.60;14.95;;;;;;;;;;5067981;28;20017;-46
2022/08/22 09:02:19;;;;;;;23.15;14.57;;;;;;;;;;5066136;28;20040;-46
2022/08/22 09:05:00;;;;;;;23.30;14.05;;;;;;;;;;5051010;28;20064;-48
2022/08/22 09:07:46;;;;;;;29.15;15.13;;;;;;;;;;5037728;28;20037;-48
2022/08/22 09:10:11;;;;;;;29.23;15.05;;;;;;;;;;5023555;28;20025;-44
2022/08/22 09:12:49;;;;;;;24.85;15.23;;;;;;;;;;5050879;28;20033;-44
2022/08/22 09:15:20;;;;;;;23.08;14.57;;;;;;;;;;5049030;28;20017;-44
2022/08/22 09:18:04;;;;;;;21.67;14.10;;;;;;;;;;5039839;28;20034;-45
2022/08/22 09:20:48;;;;;;;27.02;15.13;;;;;;;;;;5013223;28;20024;-48
2022/08/22 09:23:32;;;;;;;26.52;15.68;;;;;;;;;;5042353;28;20028;-43
2022/08/22 09:26:06;;;;;;;20.85;14.68;;;;;;;;;;5050183;28;20585;-43
2022/08/22 09:28:38;;;;;;;23.88;16.23;;;;;;;;;;5032449;28;20492;-44
2022/08/22 09:31:07;;;;;;;20.73;13.85;;;;;;;;;;5049635;28;20025;-43
2022/08/22 09:33:32;;;;;;;;;;;;;;;;;;5050782;28;20029;-43
2022/08/22 09:36:01;;;;;;;25.33;13.80;;;;;;;;;;5050815;28;19999;-44
2022/08/22 09:38:26;;;;;;;32.95;14.60;;;;;;;;;;5050599;28;20036;-44
2022/08/22 09:40:52;;;;;;;21.20;13.13;;;;;;;;;;5032275;28;20025;-44
2022/08/22 09:43:23;;;;;;;22.30;15.27;;;;;;;;;;5047319;28;20022;-44
2022/08/22 09:45:48;;;;;;;21.02;14.75;;;;;;;;;;5050334;28;20536;-43
2022/08/22 09:48:14;;;;;;;17.57;12.57;;;;;;;;;;5040681;28;20104;-45
2022/08/22 09:50:54;;;;;;;21.73;13.33;;;;;;;;;;5032404;28;20052;-44
2022/08/22 09:53:38;;;;;;;23.90;12.93;;;;;;;;;;5049942;28;20022;-43
2022/08/22 09:56:08;;;;;;;20.27;12.68;;;;;;;;;;5034434;28;20025;-45
2022/08/22 09:58:34;;;;;;;18.33;12.75;;;;;;;;;;5034284;28;20029;-44
2022/08/22 10:01:06;;;;;;;20.10;12.17;;;;;;;;;;5016343;28;20079;-43
2022/08/22 10:03:44;;;;;;;21.77;12.65;;;;;;;;;;5034480;28;20250;-43
2022/08/22 10:06:19;;;;;;;18.63;11.35;;;;;;;;;;5034078;28;20084;-43
2022/08/22 10:08:44;;;;;;;23.35;12.38;;;;;;;;;;5033383;28;20113;-43
2022/08/22 10:11:19;;;;;;;19.08;11.10;;;;;;;;;;5015798;28;20117;-43
2022/08/22 10:13:54;;;;;;;19.33;13.13;;;;;;;;;;5050387;28;20029;-48
2022/08/22 10:16:19;;;;;;;21.20;12.15;;;;;;;;;;5053924;28;20040;-44
2022/08/22 10:18:49;;;;;;;18.73;12.52;;;;;;;;;;5053586;28;20066;-43
2022/08/22 10:21:20;;;;;;;20.05;14.02;;;;;;;;;;5035541;28;20056;-44
2022/08/22 10:24:11;;;;;;;20.70;12.80;;;;;;;;;;5052378;28;20431;-46
2022/08/22 10:26:43;;;;;;;22.05;14.50;;;;;;;;;;5020130;28;20045;-44
2022/08/22 10:29:27;;;;;;;23.55;15.70;;;;;;;;;;5051306;28;20017;-44
2022/08/22 10:31:56;;;;;;;22.70;15.40;;;;;;;;;;5049552;28;20025;-44
2022/08/22 10:34:21;;;;;;;;;;;;;;;;;;5047645;28;20013;-46
2022/08/22 10:36:58;;;;;;;20.50;12.27;;;;;;;;;;5026753;28;19916;-43
2022/08/22 10:39:43;;;;;;;18.80;13.88;;;;;;;;;;5027797;28;20388;-44
2022/08/22 10:42:23;;;;;;;23.08;14.65;;;;;;;;;;5034854;28;20065;-44
2022/08/22 10:44:55;;;;;;;20.77;13.85;;;;;;;;;;5048434;28;20431;-45
2022/08/22 10:47:26;;;;;;;16.15;10.90;;;;;;;;;;5051016;28;20029;-45
2022/08/22 10:49:53;;;;;;;21.10;13.18;;;;;;;;;;5047632;28;20029;-45
2022/08/22 10:52:34;;;;;;;19.80;12.88;;;;;;;;;;5046626;28;20017;-45
2022/08/22 10:55:11;;;;;;;16.27;12.93;;;;;;;;;;5046627;28;20024;-43
2022/08/22 10:57:45;;;;;;;23.92;13.88;;;;;;;;;;5031687;28;20770;-43
2022/08/22 11:00:16;;;;;;;18.67;12.18;;;;;;;;;;5024558;28;20017;-43
2022/08/22 11:02:41;;;;;;;22.40;12.95;;;;;;;;;;5041685;28;20032;-43
2022/08/22 11:05:10;;;;;;;20.65;12.85;;;;;;;;;;5049252;28;20045;-44
2022/08/22 11:07:44;;;;;;;19.40;14.35;;;;;;;;;;5049408;28;20037;-45
2022/08/22 11:10:32;;;;;;;18.85;12.98;;;;;;;;;;5050459;28;20033;-43
2022/08/22 11:12:58;;;;;;;16.85;13.25;;;;;;;;;;5020689;28;20639;-44
2022/08/22 11:15:42;;;;;;;22.38;13.25;;;;;;;;;;5030767;28;20025;-44
2022/08/22 11:18:21;;;;;;;28.90;13.48;;;;;;;;;;5049354;28;20079;-44
2022/08/22 11:20:54;;;;;;;15.60;10.80;;;;;;;;;;5024885;28;20056;-45
2022/08/22 11:23:42;;;;;;;23.27;14.13;;;;;;;;;;5039683;28;20036;-45
2022/08/22 11:26:32;;;;;;;16.70;10.48;;;;;;;;;;5048791;28;20040;-48
2022/08/22 11:29:05;;;;;;;22.13;14.23;;;;;;;;;;5041079;28;20472;-45
2022/08/22 11:31:33;;;;;;;17.40;10.55;;;;;;;;;;5032093;28;20051;-45
2022/08/22 11:33:59;;;;;;;21.10;14.23;;;;;;;;;;5047346;28;20100;-45
2022/08/22 11:36:37;;;;;;;21.38;13.73;;;;;;;;;;5047525;28;20033;-47
2022/08/22 11:39:02;;;;;;;20.10;13.60;;;;;;;;;;5033502;28;20028;-45
2022/08/22 11:41:54;;;;;;;19.67;12.75;;;;;;;;;;5027515;28;20017;-46
2022/08/22 11:44:31;;;;;;;20.42;13.60;;;;;;;;;;5043805;28;20458;-45
2022/08/22 11:46:58;;;;;;;25.52;13.38;;;;;;;;;;5052294;28;20120;-44
2022/08/22 11:49:23;;;;;;;16.17;12.63;;;;;;;;;;5045354;28;20017;-45
2022/08/22 11:52:00;;;;;;;20.10;12.68;;;;;;;;;;5047602;28;20031;-45
2022/08/22 11:54:29;;;;;;;16.67;12.43;;;;;;;;;;5027527;28;20495;-44
2022/08/22 11:57:04;;;;;;;18.08;13.70;;;;;;;;;;5046958;28;20025;-46
2022/08/22 11:59:49;;;;;;;12.70;10.20;;;;;;;;;;5030254;28;20785;-43
2022/08/22 12:02:20;;;;;;;16.70;12.80;;;;;;;;;;5023522;28;20021;-45
2022/08/22 12:04:49;;;;;;;16.08;12.32;;;;;;;;;;5041653;28;20048;-45
2022/08/22 12:07:41;;;;;;;16.05;11.98;;;;;;;;;;5068032;28;20024;-43
2022/08/22 12:10:18;;;;;;;20.55;12.95;;;;;;;;;;5053800;28;20047;-46
2022/08/22 12:12:43;;;;;;;21.45;14.23;;;;;;;;;;5059889;28;20020;-45
2022/08/22 12:15:12;;;;;;;18.50;13.17;;;;;;;;;;5047835;28;20473;-46
2022/08/22 12:17:49;;;;;;;16.13;11.23;;;;;;;;;;5059155;28;20733;-45
2022/08/22 12:20:15;;;;;;;16.88;12.70;;;;;;;;;;5062252;28;20068;-46
2022/08/22 12:23:16;;;;;;;16.85;11.68;;;;;;;;;;5059587;28;20052;-46
2022/08/22 12:25:47;;;;;;;15.65;10.13;;;;;;;;;;4962315;28;20093;-44
2022/08/22 12:28:12;;;;;;;17.45;11.07;;;;;;;;;;5047147;28;20400;-46
2022/08/22 12:30:46;;;;;;;14.50;9.33;;;;;;;;;;5063433;28;20021;-45
2022/08/22 12:33:30;;;;;;;15.95;8.95;;;;;;;;;;5064751;28;20476;-45
2022/08/22 12:36:01;;;;;;;13.57;10.02;;;;;;;;;;5048584;28;20553;-46
2022/08/22 12:38:26;;;;;;;11.25;8.18;;;;;;;;;;5050537;28;20269;-46
2022/08/22 12:41:17;;;;;;;11.67;9.03;;;;;;;;;;5058571;28;20016;-44
2022/08/22 12:44:01;;;;;;;15.75;10.15;;;;;;;;;;5067717;28;20372;-44
2022/08/22 12:46:44;;;;;;;12.70;8.30;;;;;;;;;;5061300;28;20098;-44
2022/08/22 12:49:18;;;;;;;15.45;9.30;;;;;;;;;;5058811;28;20115;-45
2022/08/22 12:51:52;;;;;;;15.07;9.43;;;;;;;;;;5060777;28;20017;-45
2022/08/22 12:54:41;;;;;;;14.93;8.88;;;;;;;;;;5062797;28;20017;-44
2022/08/22 12:57:07;;;;;;;13.50;8.95;;;;;;;;;;5023030;28;20029;-48
2022/08/22 12:59:32;;;;;;;18.35;9.98;;;;;;;;;;5070693;28;20035;-44
2022/08/22 13:01:59;;;;;;;12.48;8.43;;;;;;;;;;5069724;28;20455;-46
2022/08/22 13:04:27;;;;;;;13.93;8.40;;;;;;;;;;5052262;28;20500;-45
2022/08/22 13:07:01;;;;;;;15.13;10.40;;;;;;;;;;5047878;28;20029;-44
2022/08/22 13:09:26;;;;;;;14.50;10.70;;;;;;;;;;5024901;28;20120;-45
2022/08/22 13:11:54;;;;;;;14.10;10.65;;;;;;;;;;5027503;28;20101;-44
2022/08/22 13:14:20;;;;;;;17.55;10.55;;;;;;;;;;5048220;28;20052;-44
2022/08/22 13:16:50;;;;;;;16.65;10.57;;;;;;;;;;5049885;28;20476;-45
2022/08/22 13:19:18;;;;;;;15.00;9.95;;;;;;;;;;5044634;28;20045;-46
2022/08/22 13:21:45;;;;;;;15.82;10.02;;;;;;;;;;5047415;28;20055;-44
2022/08/22 13:24:13;;;;;;;15.05;10.27;;;;;;;;;;5045033;28;20466;-45
2022/08/22 13:26:46;;;;;;;15.45;9.93;;;;;;;;;;5044552;28;20037;-44
2022/08/22 13:29:20;;;;;;;11.63;7.90;;;;;;;;;;5017190;28;20159;-46
2022/08/22 13:31:49;;;;;;;15.02;9.48;;;;;;;;;;5030577;28;20415;-48
2022/08/22 13:34:33;;;;;;;12.70;9.60;;;;;;;;;;5026597;28;20013;-45
2022/08/22 13:37:00;;;;;;;16.60;11.18;;;;;;;;;;5030098;28;20032;-46
2022/08/22 13:39:30;;;;;;;13.73;10.82;;;;;;;;;;5023883;28;20028;-45
2022/08/22 13:41:58;;;;;;;14.68;11.05;;;;;;;;;;5047939;28;20404;-45
2022/08/22 13:44:25;;;;;;;17.42;11.40;;;;;;;;;;5045194;28;20021;-49
2022/08/22 13:46:52;;;;;;;18.10;12.38;;;;;;;;;;5048465;28;20492;-44
2022/08/22 13:49:19;;;;;;;18.02;11.30;;;;;;;;;;5027516;28;20303;-45
2022/08/22 13:52:13;;;;;;;16.77;10.50;;;;;;;;;;5026406;28;20025;-47
2022/08/22 13:54:45;;;;;;;18.60;11.93;;;;;;;;;;4970217;28;20034;-45
2022/08/22 13:57:28;;;;;;;17.63;10.05;;;;;;;;;;5030794;28;20030;-48
2022/08/22 14:00:10;;;;;;;15.63;11.95;;;;;;;;;;5043024;28;20041;-45
2022/08/22 14:02:54;;;;;;;15.13;10.70;;;;;;;;;;5028287;28;20122;-44
2022/08/22 14:05:26;;;;;;;13.90;10.65;;;;;;;;;;5046077;28;20400;-48
2022/08/22 14:07:54;;;;;;;13.63;10.35;;;;;;;;;;5030183;28;20032;-45
2022/08/22 14:10:25;;;;;;;13.02;9.05;;;;;;;;;;5023474;28;20373;-45
2022/08/22 14:12:57;;;;;;;11.52;9.07;;;;;;;;;;5043830;28;20088;-44
2022/08/22 14:15:28;;;;;;;12.80;9.23;;;;;;;;;;5041981;28;20103;-45
2022/08/22 14:18:07;;;;;;;12.45;8.77;;;;;;;;;;5045665;28;20065;-45
2022/08/22 14:20:33;;;;;;;12.57;9.02;;;;;;;;;;5033743;28;20029;-45
2022/08/22 14:23:05;;;;;;;10.18;7.90;;;;;;;;;;5046561;28;20048;-44
2022/08/22 14:25:35;;;;;;;10.07;7.32;;;;;;;;;;5026454;28;20365;-47
2022/08/22 14:28:05;;;;;;;12.35;7.22;;;;;;;;;;5040897;28;20027;-44
2022/08/22 14:30:32;;;;;;;13.13;7.40;;;;;;;;;;5040292;28;20014;-49
2022/08/22 14:33:05;;;;;;;8.38;6.80;;;;;;;;;;5034898;28;20060;-44
2022/08/22 14:35:34;;;;;;;10.18;5.90;;;;;;;;;;5045202;28;20461;-46
2022/08/22 14:38:17;;;;;;;6.97;4.97;;;;;;;;;;5048033;28;20033;-45
2022/08/22 14:40:43;;;;;;;7.75;5.78;;;;;;;;;;5052868;28;20025;-45
2022/08/22 14:43:19;;;;;;;9.27;5.63;;;;;;;;;;5053684;28;20119;-44
2022/08/22 14:45:52;;;;;;;6.93;5.30;;;;;;;;;;5034564;28;20037;-45
2022/08/22 14:48:23;;;;;;;7.68;4.65;;;;;;;;;;5035797;28;20101;-44
2022/08/22 14:50:48;;;;;;;8.40;4.72;;;;;;;;;;5050626;28;20431;-44
2022/08/22 14:53:19;;;;;;;5.68;4.72;;;;;;;;;;5016779;28;20021;-44
2022/08/22 14:55:57;;;;;;;9.63;4.68;;;;;;;;;;5015910;28;20048;-45